KCCA/CCA METAR and TAF weather

Enter ICAO airport designator
Station Type Date Time Source
KCCA METAR 2022/09/26 08:35 UTC NOAA

KCCA 260835Z AUTO 00000KT 10SM CLR 10/09 A3006 RMK AO2


Station Type Date Time Source
KCCA Decoded METAR 2022/09/26 08:35 UTC NOAA

Station name not available
Sep 26, 2022 - 04:35 AM EDT / 2022.09.26 0835 UTC
Wind: Calm:0
Visibility: 10 mile(s):0
Sky conditions: clear
Temperature: 50 F (10 C)
Dew Point: 48 F (9 C)
Relative Humidity: 93%
Pressure (altimeter): 30.06 in. Hg (1017 hPa)
ob: KCCA 260835Z AUTO 00000KT 10SM CLR 10/09 A3006 RMK AO2
cycle: 8

Station Type Date Time Source
KCCA TAF UTC NOAA

Error!

Example: see airport list